sensor_id;sensor_type;location;lat;lon;timestamp;P1;durP1;ratioP1;P2;durP2;ratioP2
67130;SDS011;54051;53.464;49.532;2023-03-23T00:01:26;17.15;;;7.85;;
67130;SDS011;54051;53.464;49.532;2023-03-23T00:03:55;17.45;;;7.82;;
67130;SDS011;54051;53.464;49.532;2023-03-23T00:06:23;17.02;;;8.02;;
67130;SDS011;54051;53.464;49.532;2023-03-23T00:08:52;15.65;;;7.45;;
67130;SDS011;54051;53.464;49.532;2023-03-23T00:11:28;18.48;;;7.88;;
67130;SDS011;54051;53.464;49.532;2023-03-23T00:13:57;19.58;;;8.15;;
67130;SDS011;54051;53.464;49.532;2023-03-23T00:16:27;21.92;;;8.80;;
67130;SDS011;54051;53.464;49.532;2023-03-23T00:19:03;19.35;;;8.02;;
67130;SDS011;54051;53.464;49.532;2023-03-23T00:21:33;21.25;;;9.55;;
67130;SDS011;54051;53.464;49.532;2023-03-23T00:24:03;18.25;;;8.05;;
67130;SDS011;54051;53.464;49.532;2023-03-23T00:26:34;19.60;;;8.88;;
67130;SDS011;54051;53.464;49.532;2023-03-23T00:29:04;19.42;;;9.07;;
67130;SDS011;54051;53.464;49.532;2023-03-23T00:31:31;21.42;;;9.13;;
67130;SDS011;54051;53.464;49.532;2023-03-23T00:33:59;25.30;;;10.25;;
67130;SDS011;54051;53.464;49.532;2023-03-23T00:36:27;22.95;;;8.93;;
67130;SDS011;54051;53.464;49.532;2023-03-23T00:38:54;21.55;;;9.60;;
67130;SDS011;54051;53.464;49.532;2023-03-23T00:41:25;20.08;;;8.43;;
67130;SDS011;54051;53.464;49.532;2023-03-23T00:43:53;20.60;;;8.90;;
67130;SDS011;54051;53.464;49.532;2023-03-23T00:46:23;20.52;;;8.57;;
67130;SDS011;54051;53.464;49.532;2023-03-23T00:48:50;22.30;;;9.18;;
67130;SDS011;54051;53.464;49.532;2023-03-23T00:51:17;21.53;;;8.87;;
67130;SDS011;54051;53.464;49.532;2023-03-23T00:53:44;20.17;;;8.63;;
67130;SDS011;54051;53.464;49.532;2023-03-23T00:56:11;17.92;;;8.15;;
67130;SDS011;54051;53.464;49.532;2023-03-23T00:58:38;22.73;;;8.60;;
67130;SDS011;54051;53.464;49.532;2023-03-23T01:01:04;16.90;;;8.45;;
67130;SDS011;54051;53.464;49.532;2023-03-23T01:03:32;18.35;;;8.02;;
67130;SDS011;54051;53.464;49.532;2023-03-23T01:06:06;18.98;;;8.05;;
67130;SDS011;54051;53.464;49.532;2023-03-23T01:08:39;18.95;;;8.23;;
67130;SDS011;54051;53.464;49.532;2023-03-23T01:11:14;17.95;;;8.18;;
67130;SDS011;54051;53.464;49.532;2023-03-23T01:13:42;18.98;;;8.20;;
67130;SDS011;54051;53.464;49.532;2023-03-23T01:16:08;17.30;;;7.22;;
67130;SDS011;54051;53.464;49.532;2023-03-23T01:18:36;16.95;;;7.93;;
67130;SDS011;54051;53.464;49.532;2023-03-23T01:21:04;21.92;;;9.27;;
67130;SDS011;54051;53.464;49.532;2023-03-23T01:23:36;18.63;;;7.82;;
67130;SDS011;54051;53.464;49.532;2023-03-23T01:26:06;19.73;;;8.80;;
67130;SDS011;54051;53.464;49.532;2023-03-23T01:28:39;18.45;;;7.90;;
67130;SDS011;54051;53.464;49.532;2023-03-23T01:31:09;18.88;;;8.40;;
67130;SDS011;54051;53.464;49.532;2023-03-23T01:33:40;17.05;;;7.95;;
67130;SDS011;54051;53.464;49.532;2023-03-23T01:36:09;19.20;;;8.25;;
67130;SDS011;54051;53.464;49.532;2023-03-23T01:38:44;18.65;;;8.30;;
67130;SDS011;54051;53.464;49.532;2023-03-23T01:41:12;18.15;;;8.50;;
67130;SDS011;54051;53.464;49.532;2023-03-23T01:46:33;19.60;;;7.75;;
67130;SDS011;54051;53.464;49.532;2023-03-23T01:49:19;22.48;;;8.35;;
67130;SDS011;54051;53.464;49.532;2023-03-23T01:51:54;21.75;;;8.98;;
67130;SDS011;54051;53.464;49.532;2023-03-23T01:54:24;23.33;;;8.77;;
67130;SDS011;54051;53.464;49.532;2023-03-23T01:56:59;23.95;;;9.20;;
67130;SDS011;54051;53.464;49.532;2023-03-23T01:59:33;19.05;;;8.48;;
67130;SDS011;54051;53.464;49.532;2023-03-23T02:02:01;18.38;;;8.38;;
67130;SDS011;54051;53.464;49.532;2023-03-23T02:04:27;20.50;;;8.17;;
67130;SDS011;54051;53.464;49.532;2023-03-23T02:06:55;19.42;;;7.93;;
67130;SDS011;54051;53.464;49.532;2023-03-23T02:09:26;19.35;;;8.43;;
67130;SDS011;54051;53.464;49.532;2023-03-23T02:11:53;18.05;;;7.63;;
67130;SDS011;54051;53.464;49.532;2023-03-23T02:14:20;20.15;;;8.15;;
67130;SDS011;54051;53.464;49.532;2023-03-23T02:22:22;22.35;;;8.68;;
67130;SDS011;54051;53.464;49.532;2023-03-23T02:30:37;23.17;;;8.73;;
67130;SDS011;54051;53.464;49.532;2023-03-23T02:33:38;18.85;;;8.70;;
67130;SDS011;54051;53.464;49.532;2023-03-23T02:36:11;20.83;;;7.78;;
67130;SDS011;54051;53.464;49.532;2023-03-23T02:41:24;17.38;;;6.93;;
67130;SDS011;54051;53.464;49.532;2023-03-23T02:44:02;16.67;;;7.63;;
67130;SDS011;54051;53.464;49.532;2023-03-23T02:46:30;19.45;;;7.63;;
67130;SDS011;54051;53.464;49.532;2023-03-23T02:48:57;19.75;;;8.07;;
67130;SDS011;54051;53.464;49.532;2023-03-23T02:51:26;19.00;;;7.68;;
67130;SDS011;54051;53.464;49.532;2023-03-23T02:53:54;21.50;;;8.23;;
67130;SDS011;54051;53.464;49.532;2023-03-23T02:56:22;19.95;;;7.93;;
67130;SDS011;54051;53.464;49.532;2023-03-23T02:58:50;22.27;;;8.68;;
67130;SDS011;54051;53.464;49.532;2023-03-23T03:03:54;18.20;;;8.13;;
67130;SDS011;54051;53.464;49.532;2023-03-23T03:08:59;18.65;;;8.05;;
67130;SDS011;54051;53.464;49.532;2023-03-23T03:11:29;19.02;;;8.05;;
67130;SDS011;54051;53.464;49.532;2023-03-23T03:14:00;17.27;;;7.45;;
67130;SDS011;54051;53.464;49.532;2023-03-23T03:19:35;19.00;;;7.88;;
67130;SDS011;54051;53.464;49.532;2023-03-23T03:22:07;17.67;;;7.85;;
67130;SDS011;54051;53.464;49.532;2023-03-23T03:24:34;20.00;;;8.00;;
67130;SDS011;54051;53.464;49.532;2023-03-23T03:27:04;16.92;;;7.88;;
67130;SDS011;54051;53.464;49.532;2023-03-23T03:29:36;17.30;;;7.63;;
67130;SDS011;54051;53.464;49.532;2023-03-23T03:32:08;17.50;;;8.05;;
67130;SDS011;54051;53.464;49.532;2023-03-23T03:34:37;17.88;;;7.50;;
67130;SDS011;54051;53.464;49.532;2023-03-23T03:37:05;18.25;;;8.15;;
67130;SDS011;54051;53.464;49.532;2023-03-23T03:39:34;24.40;;;9.63;;
67130;SDS011;54051;53.464;49.532;2023-03-23T03:42:01;20.88;;;8.05;;
67130;SDS011;54051;53.464;49.532;2023-03-23T03:44:28;19.35;;;7.68;;
67130;SDS011;54051;53.464;49.532;2023-03-23T03:46:54;20.35;;;8.00;;
67130;SDS011;54051;53.464;49.532;2023-03-23T03:49:20;19.15;;;8.00;;
67130;SDS011;54051;53.464;49.532;2023-03-23T03:51:48;17.35;;;7.60;;
67130;SDS011;54051;53.464;49.532;2023-03-23T03:54:14;21.23;;;8.25;;
67130;SDS011;54051;53.464;49.532;2023-03-23T03:56:41;19.13;;;7.53;;
67130;SDS011;54051;53.464;49.532;2023-03-23T03:59:09;19.65;;;8.18;;
67130;SDS011;54051;53.464;49.532;2023-03-23T04:01:36;20.15;;;7.88;;
67130;SDS011;54051;53.464;49.532;2023-03-23T04:06:30;21.38;;;8.13;;
67130;SDS011;54051;53.464;49.532;2023-03-23T04:08:58;17.38;;;7.78;;
67130;SDS011;54051;53.464;49.532;2023-03-23T04:11:26;16.50;;;7.68;;
67130;SDS011;54051;53.464;49.532;2023-03-23T04:13:53;19.25;;;8.18;;
67130;SDS011;54051;53.464;49.532;2023-03-23T04:16:19;15.43;;;7.55;;
67130;SDS011;54051;53.464;49.532;2023-03-23T04:21:13;15.35;;;7.25;;
67130;SDS011;54051;53.464;49.532;2023-03-23T04:23:39;17.13;;;7.97;;
67130;SDS011;54051;53.464;49.532;2023-03-23T04:26:06;17.83;;;7.53;;
67130;SDS011;54051;53.464;49.532;2023-03-23T04:28:32;19.05;;;7.55;;
67130;SDS011;54051;53.464;49.532;2023-03-23T04:30:59;17.13;;;7.47;;
67130;SDS011;54051;53.464;49.532;2023-03-23T04:33:27;20.13;;;7.63;;
67130;SDS011;54051;53.464;49.532;2023-03-23T04:35:56;18.10;;;7.78;;
67130;SDS011;54051;53.464;49.532;2023-03-23T04:38:26;30.05;;;8.98;;
67130;SDS011;54051;53.464;49.532;2023-03-23T04:40:54;17.90;;;7.63;;
67130;SDS011;54051;53.464;49.532;2023-03-23T04:43:22;18.60;;;8.98;;
67130;SDS011;54051;53.464;49.532;2023-03-23T04:45:53;24.77;;;8.30;;
67130;SDS011;54051;53.464;49.532;2023-03-23T04:48:24;18.40;;;8.25;;
67130;SDS011;54051;53.464;49.532;2023-03-23T04:50:52;16.67;;;8.27;;
67130;SDS011;54051;53.464;49.532;2023-03-23T04:53:19;19.50;;;8.60;;
67130;SDS011;54051;53.464;49.532;2023-03-23T04:55:46;18.98;;;8.35;;
67130;SDS011;54051;53.464;49.532;2023-03-23T04:58:14;19.00;;;8.32;;
67130;SDS011;54051;53.464;49.532;2023-03-23T05:00:42;23.90;;;8.73;;
67130;SDS011;54051;53.464;49.532;2023-03-23T05:05:35;21.55;;;8.95;;
67130;SDS011;54051;53.464;49.532;2023-03-23T05:08:02;19.85;;;8.52;;
67130;SDS011;54051;53.464;49.532;2023-03-23T05:10:29;17.63;;;8.80;;
67130;SDS011;54051;53.464;49.532;2023-03-23T05:12:55;20.65;;;8.73;;
67130;SDS011;54051;53.464;49.532;2023-03-23T05:15:21;21.13;;;8.65;;
67130;SDS011;54051;53.464;49.532;2023-03-23T05:17:47;20.20;;;8.63;;
67130;SDS011;54051;53.464;49.532;2023-03-23T05:20:17;22.65;;;9.50;;
67130;SDS011;54051;53.464;49.532;2023-03-23T05:22:47;19.48;;;8.68;;
67130;SDS011;54051;53.464;49.532;2023-03-23T05:25:15;18.85;;;8.25;;
67130;SDS011;54051;53.464;49.532;2023-03-23T05:27:44;21.35;;;8.80;;
67130;SDS011;54051;53.464;49.532;2023-03-23T05:30:14;20.55;;;8.73;;
67130;SDS011;54051;53.464;49.532;2023-03-23T05:32:42;20.10;;;9.23;;
67130;SDS011;54051;53.464;49.532;2023-03-23T05:35:11;18.33;;;8.40;;
67130;SDS011;54051;53.464;49.532;2023-03-23T05:37:38;21.52;;;8.73;;
67130;SDS011;54051;53.464;49.532;2023-03-23T05:40:04;20.23;;;9.05;;
67130;SDS011;54051;53.464;49.532;2023-03-23T05:42:33;21.33;;;8.25;;
67130;SDS011;54051;53.464;49.532;2023-03-23T05:45:03;19.88;;;9.30;;
67130;SDS011;54051;53.464;49.532;2023-03-23T05:47:30;21.90;;;9.02;;
67130;SDS011;54051;53.464;49.532;2023-03-23T05:49:57;23.80;;;8.95;;
67130;SDS011;54051;53.464;49.532;2023-03-23T05:52:24;25.88;;;8.82;;
67130;SDS011;54051;53.464;49.532;2023-03-23T05:54:50;24.02;;;9.25;;
67130;SDS011;54051;53.464;49.532;2023-03-23T05:57:17;25.08;;;11.18;;
67130;SDS011;54051;53.464;49.532;2023-03-23T05:59:47;22.15;;;9.82;;
67130;SDS011;54051;53.464;49.532;2023-03-23T06:02:13;21.85;;;9.77;;
67130;SDS011;54051;53.464;49.532;2023-03-23T06:04:40;19.90;;;9.35;;
67130;SDS011;54051;53.464;49.532;2023-03-23T06:07:07;22.47;;;9.60;;
67130;SDS011;54051;53.464;49.532;2023-03-23T06:09:38;20.83;;;9.48;;
67130;SDS011;54051;53.464;49.532;2023-03-23T06:12:04;22.60;;;9.65;;
67130;SDS011;54051;53.464;49.532;2023-03-23T06:14:31;20.58;;;8.85;;
67130;SDS011;54051;53.464;49.532;2023-03-23T06:16:58;34.13;;;9.48;;
67130;SDS011;54051;53.464;49.532;2023-03-23T06:19:24;30.50;;;8.55;;
67130;SDS011;54051;53.464;49.532;2023-03-23T06:21:54;20.05;;;8.75;;
67130;SDS011;54051;53.464;49.532;2023-03-23T06:24:21;17.58;;;7.65;;
67130;SDS011;54051;53.464;49.532;2023-03-23T06:26:47;20.08;;;8.30;;
67130;SDS011;54051;53.464;49.532;2023-03-23T06:29:15;16.65;;;7.50;;
67130;SDS011;54051;53.464;49.532;2023-03-23T06:31:44;16.80;;;7.68;;
67130;SDS011;54051;53.464;49.532;2023-03-23T06:34:13;15.85;;;7.93;;
67130;SDS011;54051;53.464;49.532;2023-03-23T06:36:40;20.98;;;8.23;;
67130;SDS011;54051;53.464;49.532;2023-03-23T06:39:09;19.45;;;8.38;;
67130;SDS011;54051;53.464;49.532;2023-03-23T06:41:35;22.77;;;8.90;;
67130;SDS011;54051;53.464;49.532;2023-03-23T06:44:01;18.20;;;7.90;;
67130;SDS011;54051;53.464;49.532;2023-03-23T06:46:27;19.48;;;8.27;;
67130;SDS011;54051;53.464;49.532;2023-03-23T06:48:54;20.25;;;7.90;;
67130;SDS011;54051;53.464;49.532;2023-03-23T06:51:20;22.10;;;8.57;;
67130;SDS011;54051;53.464;49.532;2023-03-23T06:53:47;20.85;;;8.05;;
67130;SDS011;54051;53.464;49.532;2023-03-23T06:56:13;17.67;;;8.50;;
67130;SDS011;54051;53.464;49.532;2023-03-23T06:58:40;15.45;;;7.63;;
67130;SDS011;54051;53.464;49.532;2023-03-23T07:01:07;18.67;;;8.38;;
67130;SDS011;54051;53.464;49.532;2023-03-23T07:03:35;17.58;;;7.75;;
67130;SDS011;54051;53.464;49.532;2023-03-23T07:06:02;15.95;;;7.93;;
67130;SDS011;54051;53.464;49.532;2023-03-23T07:10:56;15.88;;;8.07;;
67130;SDS011;54051;53.464;49.532;2023-03-23T07:13:22;15.10;;;7.80;;
67130;SDS011;54051;53.464;49.532;2023-03-23T07:20:42;18.63;;;10.82;;
67130;SDS011;54051;53.464;49.532;2023-03-23T07:23:08;17.85;;;10.73;;
67130;SDS011;54051;53.464;49.532;2023-03-23T07:25:35;21.35;;;10.80;;
67130;SDS011;54051;53.464;49.532;2023-03-23T07:28:02;19.27;;;11.10;;
67130;SDS011;54051;53.464;49.532;2023-03-23T07:30:29;17.92;;;9.95;;
67130;SDS011;54051;53.464;49.532;2023-03-23T07:32:56;13.60;;;7.93;;
67130;SDS011;54051;53.464;49.532;2023-03-23T07:35:23;13.45;;;7.68;;
67130;SDS011;54051;53.464;49.532;2023-03-23T07:37:50;9.57;;;5.15;;
67130;SDS011;54051;53.464;49.532;2023-03-23T07:40:17;9.15;;;5.38;;
67130;SDS011;54051;53.464;49.532;2023-03-23T07:45:12;12.23;;;5.00;;
67130;SDS011;54051;53.464;49.532;2023-03-23T07:47:39;7.70;;;4.00;;
67130;SDS011;54051;53.464;49.532;2023-03-23T07:54:59;6.63;;;3.08;;
67130;SDS011;54051;53.464;49.532;2023-03-23T07:57:27;6.70;;;3.50;;
67130;SDS011;54051;53.464;49.532;2023-03-23T07:59:54;5.70;;;3.03;;
67130;SDS011;54051;53.464;49.532;2023-03-23T08:02:22;6.25;;;3.00;;
67130;SDS011;54051;53.464;49.532;2023-03-23T08:04:49;6.05;;;2.88;;
67130;SDS011;54051;53.464;49.532;2023-03-23T08:09:45;5.78;;;2.92;;
67130;SDS011;54051;53.464;49.532;2023-03-23T08:12:13;6.60;;;3.17;;
67130;SDS011;54051;53.464;49.532;2023-03-23T08:14:39;7.07;;;3.50;;
67130;SDS011;54051;53.464;49.532;2023-03-23T08:17:07;8.98;;;3.90;;
67130;SDS011;54051;53.464;49.532;2023-03-23T08:19:35;6.28;;;3.42;;
67130;SDS011;54051;53.464;49.532;2023-03-23T08:22:03;8.27;;;3.88;;
67130;SDS011;54051;53.464;49.532;2023-03-23T08:24:30;9.23;;;3.40;;
67130;SDS011;54051;53.464;49.532;2023-03-23T08:26:58;7.07;;;3.90;;
67130;SDS011;54051;53.464;49.532;2023-03-23T08:29:25;9.30;;;4.45;;
67130;SDS011;54051;53.464;49.532;2023-03-23T08:31:52;6.90;;;3.50;;
67130;SDS011;54051;53.464;49.532;2023-03-23T08:34:19;23.17;;;4.82;;
67130;SDS011;54051;53.464;49.532;2023-03-23T08:39:12;7.07;;;3.10;;
67130;SDS011;54051;53.464;49.532;2023-03-23T08:41:43;6.70;;;3.10;;
67130;SDS011;54051;53.464;49.532;2023-03-23T08:44:10;7.57;;;3.95;;
67130;SDS011;54051;53.464;49.532;2023-03-23T08:51:31;8.70;;;3.28;;
67130;SDS011;54051;53.464;49.532;2023-03-23T08:53:58;7.30;;;3.42;;
67130;SDS011;54051;53.464;49.532;2023-03-23T08:56:24;6.72;;;3.50;;
67130;SDS011;54051;53.464;49.532;2023-03-23T08:58:51;7.45;;;3.70;;
67130;SDS011;54051;53.464;49.532;2023-03-23T09:01:17;7.75;;;3.58;;
67130;SDS011;54051;53.464;49.532;2023-03-23T09:03:44;15.07;;;4.30;;
67130;SDS011;54051;53.464;49.532;2023-03-23T09:06:10;7.28;;;3.60;;
67130;SDS011;54051;53.464;49.532;2023-03-23T09:08:38;7.68;;;3.70;;
67130;SDS011;54051;53.464;49.532;2023-03-23T09:11:06;7.20;;;3.63;;
67130;SDS011;54051;53.464;49.532;2023-03-23T09:13:35;7.25;;;3.67;;
67130;SDS011;54051;53.464;49.532;2023-03-23T09:16:02;7.22;;;3.38;;
67130;SDS011;54051;53.464;49.532;2023-03-23T09:18:30;7.63;;;3.40;;
67130;SDS011;54051;53.464;49.532;2023-03-23T09:20:58;10.43;;;3.78;;
67130;SDS011;54051;53.464;49.532;2023-03-23T09:23:25;8.38;;;2.90;;
67130;SDS011;54051;53.464;49.532;2023-03-23T09:25:52;7.25;;;3.35;;
67130;SDS011;54051;53.464;49.532;2023-03-23T09:28:18;8.38;;;3.97;;
67130;SDS011;54051;53.464;49.532;2023-03-23T09:30:45;42.53;;;6.55;;
67130;SDS011;54051;53.464;49.532;2023-03-23T09:33:13;14.50;;;4.13;;
67130;SDS011;54051;53.464;49.532;2023-03-23T09:35:40;7.65;;;3.42;;
67130;SDS011;54051;53.464;49.532;2023-03-23T09:38:08;7.03;;;3.25;;
67130;SDS011;54051;53.464;49.532;2023-03-23T09:40:51;7.53;;;3.58;;
67130;SDS011;54051;53.464;49.532;2023-03-23T09:48:51;8.88;;;3.80;;
67130;SDS011;54051;53.464;49.532;2023-03-23T09:54:11;7.80;;;3.30;;
67130;SDS011;54051;53.464;49.532;2023-03-23T09:56:57;7.28;;;3.60;;
67130;SDS011;54051;53.464;49.532;2023-03-23T09:59:29;7.60;;;3.67;;
67130;SDS011;54051;53.464;49.532;2023-03-23T10:02:12;7.50;;;3.58;;
67130;SDS011;54051;53.464;49.532;2023-03-23T10:04:43;7.50;;;3.50;;
67130;SDS011;54051;53.464;49.532;2023-03-23T10:07:19;7.15;;;3.67;;
67130;SDS011;54051;53.464;49.532;2023-03-23T10:09:55;6.97;;;3.30;;
67130;SDS011;54051;53.464;49.532;2023-03-23T10:12:29;6.68;;;3.40;;
67130;SDS011;54051;53.464;49.532;2023-03-23T10:17:57;8.27;;;3.75;;
67130;SDS011;54051;53.464;49.532;2023-03-23T10:31:33;12.80;;;4.15;;
67130;SDS011;54051;53.464;49.532;2023-03-23T10:34:04;7.55;;;3.35;;
67130;SDS011;54051;53.464;49.532;2023-03-23T10:36:48;6.97;;;3.58;;
67130;SDS011;54051;53.464;49.532;2023-03-23T10:39:20;12.73;;;4.00;;
67130;SDS011;54051;53.464;49.532;2023-03-23T10:41:49;8.32;;;3.78;;
67130;SDS011;54051;53.464;49.532;2023-03-23T10:44:19;8.00;;;3.67;;
67130;SDS011;54051;53.464;49.532;2023-03-23T10:46:50;7.80;;;3.60;;
67130;SDS011;54051;53.464;49.532;2023-03-23T10:49:30;7.50;;;4.00;;
67130;SDS011;54051;53.464;49.532;2023-03-23T10:52:24;7.57;;;3.78;;
67130;SDS011;54051;53.464;49.532;2023-03-23T10:55:07;8.20;;;3.88;;
67130;SDS011;54051;53.464;49.532;2023-03-23T10:57:35;8.90;;;3.97;;
67130;SDS011;54051;53.464;49.532;2023-03-23T11:00:05;8.57;;;3.63;;
67130;SDS011;54051;53.464;49.532;2023-03-23T11:02:39;8.00;;;4.00;;
67130;SDS011;54051;53.464;49.532;2023-03-23T11:05:14;8.85;;;4.35;;
67130;SDS011;54051;53.464;49.532;2023-03-23T11:07:48;9.73;;;4.57;;
67130;SDS011;54051;53.464;49.532;2023-03-23T11:10:26;10.25;;;5.63;;
67130;SDS011;54051;53.464;49.532;2023-03-23T11:13:01;11.95;;;5.60;;
67130;SDS011;54051;53.464;49.532;2023-03-23T11:15:31;11.18;;;5.50;;
67130;SDS011;54051;53.464;49.532;2023-03-23T11:18:04;12.23;;;5.97;;
67130;SDS011;54051;53.464;49.532;2023-03-23T11:20:37;12.43;;;5.50;;
67130;SDS011;54051;53.464;49.532;2023-03-23T11:23:39;11.75;;;5.40;;
67130;SDS011;54051;53.464;49.532;2023-03-23T11:28:37;11.57;;;5.78;;
67130;SDS011;54051;53.464;49.532;2023-03-23T11:31:24;14.50;;;5.93;;
67130;SDS011;54051;53.464;49.532;2023-03-23T11:34:04;13.77;;;6.68;;
67130;SDS011;54051;53.464;49.532;2023-03-23T11:37:05;13.13;;;5.88;;
67130;SDS011;54051;53.464;49.532;2023-03-23T11:42:20;12.30;;;6.53;;
67130;SDS011;54051;53.464;49.532;2023-03-23T11:44:48;14.15;;;6.15;;
67130;SDS011;54051;53.464;49.532;2023-03-23T11:47:17;11.27;;;6.27;;
67130;SDS011;54051;53.464;49.532;2023-03-23T11:54:50;12.25;;;5.72;;
67130;SDS011;54051;53.464;49.532;2023-03-23T11:57:22;13.20;;;6.20;;
67130;SDS011;54051;53.464;49.532;2023-03-23T11:59:50;12.32;;;5.63;;
67130;SDS011;54051;53.464;49.532;2023-03-23T12:07:46;13.05;;;5.63;;
67130;SDS011;54051;53.464;49.532;2023-03-23T12:15:55;13.88;;;6.30;;
67130;SDS011;54051;53.464;49.532;2023-03-23T12:21:36;15.48;;;6.45;;
67130;SDS011;54051;53.464;49.532;2023-03-23T12:26:40;15.35;;;6.43;;
67130;SDS011;54051;53.464;49.532;2023-03-23T12:29:23;19.48;;;8.18;;
67130;SDS011;54051;53.464;49.532;2023-03-23T12:32:25;14.77;;;6.75;;
67130;SDS011;54051;53.464;49.532;2023-03-23T12:38:03;12.32;;;5.97;;
67130;SDS011;54051;53.464;49.532;2023-03-23T12:48:57;13.55;;;6.40;;
67130;SDS011;54051;53.464;49.532;2023-03-23T12:54:36;14.48;;;6.07;;
67130;SDS011;54051;53.464;49.532;2023-03-23T13:00:24;13.65;;;6.20;;
67130;SDS011;54051;53.464;49.532;2023-03-23T13:05:50;13.07;;;6.47;;
67130;SDS011;54051;53.464;49.532;2023-03-23T13:08:25;17.25;;;7.13;;
67130;SDS011;54051;53.464;49.532;2023-03-23T13:10:59;12.93;;;6.00;;
67130;SDS011;54051;53.464;49.532;2023-03-23T13:19:13;13.45;;;6.28;;
67130;SDS011;54051;53.464;49.532;2023-03-23T13:24:57;14.38;;;6.55;;
67130;SDS011;54051;53.464;49.532;2023-03-23T13:27:26;15.85;;;7.03;;
67130;SDS011;54051;53.464;49.532;2023-03-23T13:29:55;20.27;;;7.05;;
67130;SDS011;54051;53.464;49.532;2023-03-23T13:32:44;27.08;;;7.13;;
67130;SDS011;54051;53.464;49.532;2023-03-23T13:35:11;23.85;;;7.75;;
67130;SDS011;54051;53.464;49.532;2023-03-23T13:37:41;19.45;;;8.25;;
67130;SDS011;54051;53.464;49.532;2023-03-23T13:40:18;19.35;;;7.85;;
67130;SDS011;54051;53.464;49.532;2023-03-23T13:42:55;18.67;;;7.57;;
67130;SDS011;54051;53.464;49.532;2023-03-23T13:48:03;17.45;;;8.02;;
67130;SDS011;54051;53.464;49.532;2023-03-23T13:56:19;16.33;;;7.22;;
67130;SDS011;54051;53.464;49.532;2023-03-23T13:58:48;19.20;;;8.32;;
67130;SDS011;54051;53.464;49.532;2023-03-23T14:01:18;21.15;;;9.45;;
67130;SDS011;54051;53.464;49.532;2023-03-23T14:03:58;33.10;;;11.60;;
67130;SDS011;54051;53.464;49.532;2023-03-23T14:06:26;24.80;;;10.80;;
67130;SDS011;54051;53.464;49.532;2023-03-23T14:09:07;22.05;;;9.95;;
67130;SDS011;54051;53.464;49.532;2023-03-23T14:11:54;18.55;;;8.68;;
67130;SDS011;54051;53.464;49.532;2023-03-23T14:14:25;18.23;;;8.82;;
67130;SDS011;54051;53.464;49.532;2023-03-23T14:22:24;16.33;;;7.32;;
67130;SDS011;54051;53.464;49.532;2023-03-23T14:25:00;22.50;;;8.93;;
67130;SDS011;54051;53.464;49.532;2023-03-23T14:27:41;17.70;;;7.43;;
67130;SDS011;54051;53.464;49.532;2023-03-23T14:30:12;16.58;;;7.32;;
67130;SDS011;54051;53.464;49.532;2023-03-23T14:32:40;16.02;;;7.40;;
67130;SDS011;54051;53.464;49.532;2023-03-23T14:35:12;17.85;;;7.30;;
67130;SDS011;54051;53.464;49.532;2023-03-23T14:37:44;17.20;;;7.78;;
67130;SDS011;54051;53.464;49.532;2023-03-23T14:40:13;16.17;;;7.93;;
67130;SDS011;54051;53.464;49.532;2023-03-23T14:42:42;19.30;;;8.20;;
67130;SDS011;54051;53.464;49.532;2023-03-23T14:45:15;15.05;;;7.15;;
67130;SDS011;54051;53.464;49.532;2023-03-23T14:47:48;18.45;;;7.70;;
67130;SDS011;54051;53.464;49.532;2023-03-23T14:50:22;17.67;;;8.13;;
67130;SDS011;54051;53.464;49.532;2023-03-23T14:53:00;17.58;;;8.02;;
67130;SDS011;54051;53.464;49.532;2023-03-23T14:58:06;17.27;;;7.97;;
67130;SDS011;54051;53.464;49.532;2023-03-23T15:00:41;17.40;;;7.80;;
67130;SDS011;54051;53.464;49.532;2023-03-23T15:03:12;16.27;;;7.90;;
67130;SDS011;54051;53.464;49.532;2023-03-23T15:05:43;18.65;;;8.20;;
67130;SDS011;54051;53.464;49.532;2023-03-23T15:13:46;16.55;;;7.90;;
67130;SDS011;54051;53.464;49.532;2023-03-23T15:16:19;17.42;;;8.23;;
67130;SDS011;54051;53.464;49.532;2023-03-23T15:19:01;18.80;;;8.50;;
67130;SDS011;54051;53.464;49.532;2023-03-23T15:21:32;14.32;;;7.78;;
67130;SDS011;54051;53.464;49.532;2023-03-23T15:24:00;14.68;;;7.18;;
67130;SDS011;54051;53.464;49.532;2023-03-23T15:26:41;15.35;;;7.32;;
67130;SDS011;54051;53.464;49.532;2023-03-23T15:29:18;39.00;;;8.52;;
67130;SDS011;54051;53.464;49.532;2023-03-23T15:31:52;20.60;;;8.43;;
67130;SDS011;54051;53.464;49.532;2023-03-23T15:34:31;20.15;;;8.10;;
67130;SDS011;54051;53.464;49.532;2023-03-23T15:37:14;21.67;;;8.38;;
67130;SDS011;54051;53.464;49.532;2023-03-23T15:39:47;18.48;;;8.15;;
67130;SDS011;54051;53.464;49.532;2023-03-23T15:50:36;16.42;;;7.45;;
67130;SDS011;54051;53.464;49.532;2023-03-23T15:58:38;17.80;;;8.82;;
67130;SDS011;54051;53.464;49.532;2023-03-23T16:01:07;17.27;;;8.23;;
67130;SDS011;54051;53.464;49.532;2023-03-23T16:03:42;19.65;;;8.82;;
67130;SDS011;54051;53.464;49.532;2023-03-23T16:06:12;24.10;;;8.80;;
67130;SDS011;54051;53.464;49.532;2023-03-23T16:08:41;15.02;;;7.97;;
67130;SDS011;54051;53.464;49.532;2023-03-23T16:11:14;16.30;;;8.47;;
67130;SDS011;54051;53.464;49.532;2023-03-23T16:13:42;22.05;;;8.77;;
67130;SDS011;54051;53.464;49.532;2023-03-23T16:16:13;24.10;;;9.15;;
67130;SDS011;54051;53.464;49.532;2023-03-23T16:18:43;17.23;;;8.25;;
67130;SDS011;54051;53.464;49.532;2023-03-23T16:21:09;19.48;;;8.07;;
67130;SDS011;54051;53.464;49.532;2023-03-23T16:23:36;30.25;;;8.88;;
67130;SDS011;54051;53.464;49.532;2023-03-23T16:26:03;25.33;;;9.93;;
67130;SDS011;54051;53.464;49.532;2023-03-23T16:28:29;23.75;;;9.38;;
67130;SDS011;54051;53.464;49.532;2023-03-23T16:30:56;23.37;;;8.40;;
67130;SDS011;54051;53.464;49.532;2023-03-23T16:33:22;22.50;;;8.23;;
67130;SDS011;54051;53.464;49.532;2023-03-23T16:35:48;21.63;;;8.55;;
67130;SDS011;54051;53.464;49.532;2023-03-23T16:38:15;17.27;;;8.52;;
67130;SDS011;54051;53.464;49.532;2023-03-23T16:43:09;34.33;;;9.30;;
67130;SDS011;54051;53.464;49.532;2023-03-23T16:45:37;26.65;;;9.25;;
67130;SDS011;54051;53.464;49.532;2023-03-23T16:48:05;19.17;;;9.00;;
67130;SDS011;54051;53.464;49.532;2023-03-23T16:50:32;17.92;;;8.70;;
67130;SDS011;54051;53.464;49.532;2023-03-23T16:53:00;29.40;;;11.77;;
67130;SDS011;54051;53.464;49.532;2023-03-23T16:55:27;22.40;;;11.10;;
67130;SDS011;54051;53.464;49.532;2023-03-23T16:57:54;28.70;;;10.23;;
67130;SDS011;54051;53.464;49.532;2023-03-23T17:00:21;22.88;;;9.60;;
67130;SDS011;54051;53.464;49.532;2023-03-23T17:02:48;20.75;;;9.10;;
67130;SDS011;54051;53.464;49.532;2023-03-23T17:05:22;20.77;;;10.07;;
67130;SDS011;54051;53.464;49.532;2023-03-23T17:07:51;22.48;;;10.73;;
67130;SDS011;54051;53.464;49.532;2023-03-23T17:10:20;19.73;;;10.35;;
67130;SDS011;54051;53.464;49.532;2023-03-23T17:12:48;29.00;;;13.00;;
67130;SDS011;54051;53.464;49.532;2023-03-23T17:15:15;28.48;;;14.52;;
67130;SDS011;54051;53.464;49.532;2023-03-23T17:17:41;30.30;;;13.88;;
67130;SDS011;54051;53.464;49.532;2023-03-23T17:20:08;25.10;;;12.83;;
67130;SDS011;54051;53.464;49.532;2023-03-23T17:22:35;24.33;;;11.80;;
67130;SDS011;54051;53.464;49.532;2023-03-23T17:25:03;25.40;;;11.70;;
67130;SDS011;54051;53.464;49.532;2023-03-23T17:29:56;20.43;;;10.13;;
67130;SDS011;54051;53.464;49.532;2023-03-23T17:32:23;26.70;;;11.40;;
67130;SDS011;54051;53.464;49.532;2023-03-23T17:34:50;21.58;;;10.48;;
67130;SDS011;54051;53.464;49.532;2023-03-23T17:37:20;21.00;;;10.80;;